佐賀空港の過去48時間の天気

佐賀空港 (Saga)

現在時刻: 4/27 14:01 JST (4/27 05:01 UTC) 以下の時間は現地時間です。

過去48時間のMETAR気象情報
時間 風向 風速(m/s) 視程 気温(℃) 湿度(%) 気圧(hPa) 天気現象
27 13:00 南南東 4 10km以上 21 53 1012
27 12:00 南南東 4 10km以上 20 60 1013
27 11:00 4 10km以上 18 73 1013
27 10:00 南東 2 10km以上 17 77 1013
27 09:00 西 3 10km以上 17 77 1013
27 08:00 北北西 2 10km以上 14 88 1013
27 07:00 北北西 2 10km以上 13 94 1013
27 06:00 2 10km以上 13 88 1013
27 04:00 北西 2 10km以上 14 88 1012
27 03:00 北北西 2 10km以上 13 94 1012
27 02:00 北西 1 10km以上 13 88 1012
27 01:00 北西 2 10km以上 14 94 1012
27 00:00 北北西 1 10km以上 15 82 1012
26 23:00 北西 2 10km以上 15 88 1013
26 21:00 北北西 1 10km以上 16 82 1012
26 20:00 不定 1 10km以上 16 82 1012
26 19:00 西 2 10km以上 18 77 1011
26 18:00 西北西 3 10km以上 20 60 1011
26 17:00 西 2 10km以上 21 49 1011
26 16:00 西 4 10km以上 21 53 1011
26 15:00 南西 3 10km以上 20 56 1011
26 14:00 不定 1 10km以上 22 29 1012
26 13:00 北北東 4 10km以上 22 33 1012
26 12:00 北東 6 10km以上 21 35 1013
26 11:00 4 10km以上 18 52 1013
26 10:00 北北東 4 10km以上 17 63 1014
26 09:00 北北東 4 10km以上 14 72 1014
26 08:00 北北東 3 10km以上 12 82 1014
26 07:00 北北東 2 10km以上 10 94 1014
26 06:00 不定 1 10km以上 8 93 1013
26 04:00 北北西 3 10km以上 8 87 1012
26 03:00 北北西 2 10km以上 9 87 1012
26 02:00 2 10km以上 9 87 1012
26 01:00 不定 1 10km以上 9 87 1012
26 00:00 2 10km以上 9 87 1013
25 23:00 3 10km以上 10 87 1013
25 21:00 3 10km以上 12 82 1013
25 20:00 3 10km以上 12 88 1012
25 19:00 北北東 2 10km以上 14 82 1011
25 18:00 3 10km以上 15 77 1011
25 17:00 北北東 4 10km以上 15 77 1011
25 16:00 北北東 4 10km以上 15 77 1010
25 15:00 5 10km以上 15 82 1010
RJFS 270400Z 15008KT 9999 FEW030 21/11 Q1012
RJFS 270300Z 16008KT 9999 FEW030 20/12 Q1013
RJFS 270200Z 17007KT 9999 FEW030 SCT120 18/13 Q1013
RJFS 270100Z 14004KT 100V170 9999 FEW030 17/13 Q1013
RJFS 270000Z 27005KT 9999 FEW030 SCT120 BKN140 17/13 Q1013
RJFS 262300Z 33003KT CAVOK 14/12 Q1013
RJFS 262200Z 34003KT 300V360 CAVOK 13/12 Q1013
RJFS 262100Z 01003KT 9999 FEW050 BKN060 BKN150 13/11 Q1013
RJFS 261900Z 31004KT 9999 SCT050 BKN060 14/12 Q1012
RJFS 261800Z 33003KT 9999 FEW030 SCT045 BKN060 13/12 Q1012
RJFS 261700Z 32002KT 9999 FEW030 SCT060 13/11 Q1012
RJFS 261600Z 31003KT 9999 FEW030 BKN060 14/13 Q1012
RJFS 261500Z 34002KT 9999 FEW030 SCT050 BKN060 15/12 Q1012
RJFS 261400Z 32003KT 9999 FEW030 BKN050 15/13 Q1013
RJFS 261200Z 33002KT 9999 FEW030 BKN050 16/13 Q1012
RJFS 261100Z VRB01KT CAVOK 16/13 Q1012
RJFS 261000Z 27004KT CAVOK 18/14 Q1011
RJFS 260900Z 30006KT CAVOK 20/12 Q1011
RJFS 260800Z 27004KT 230V300 CAVOK 21/10 Q1011
RJFS 260700Z 27008KT CAVOK 21/11 Q1011
RJFS 260600Z 23006KT 210V320 CAVOK 20/11 Q1011
RJFS 260500Z VRB02KT CAVOK 22/03 Q1012
RJFS 260400Z 03008KT CAVOK 22/05 Q1012
RJFS 260300Z 04012KT CAVOK 21/05 Q1013
RJFS 260200Z 01008KT 340V050 CAVOK 18/08 Q1013
RJFS 260100Z 02007KT 350V050 CAVOK 17/10 Q1014
RJFS 260000Z 02008KT 350V050 9999 FEW025 BKN/// 14/09 Q1014
RJFS 252300Z 03006KT 9999 FEW020 BKN/// 12/09 Q1014
RJFS 252200Z 02003KT 320V060 9999 FEW020 BKN/// 10/09 Q1014
RJFS 252100Z VRB02KT 9999 FEW050 BKN/// 08/07 Q1013
RJFS 251900Z 34005KT CAVOK 08/06 Q1012
RJFS 251800Z 33004KT CAVOK 09/07 Q1012
RJFS 251700Z 36004KT CAVOK 09/07 Q1012
RJFS 251600Z VRB01KT CAVOK 09/07 Q1012
RJFS 251500Z 35004KT CAVOK 09/07 Q1013
RJFS 251400Z 01005KT CAVOK 10/08 Q1013
RJFS 251200Z 01005KT 9999 FEW030 SCT/// 12/09 Q1013
RJFS 251100Z 36006KT 9999 FEW030 12/10 Q1012
RJFS 251000Z 02004KT 9999 FEW020 SCT035 BKN/// 14/11 Q1011
RJFS 250900Z 36006KT 9999 SCT020 BKN030 15/11 Q1011
RJFS 250800Z 02008KT 9999 SCT020 BKN030 15/11 Q1011
RJFS 250700Z 02007KT 350V050 9999 SCT020 BKN030 15/11 Q1010
RJFS 250600Z 36009KT 330V030 9999 FEW020 BKN025 BKN030 15/12 Q1010